This is the latest recevied weather packets stored in our database for station/object VK2HIM-1. If no packets are shown the sender has not sent any weather packets the latest 10 day(s).
| Time | Temp. | Humidity | Pressure | Rain* | Wind** | Luminosity | Snow |
|---|---|---|---|---|---|---|---|
| 1777638829 | 18.89° C | 83% | 1026.9 hPa | 0 mm | - | - | - |
| 1777637029 | 18.89° C | 83% | 1027.3 hPa | 0 mm | - | - | - |
| 1777635229 | 18.89° C | 82% | 1027.4 hPa | 0 mm | - | - | - |
| 1777633428 | 18.89° C | 82% | 1027.2 hPa | 0 mm | - | - | - |
| 1777631628 | 18.89° C | 83% | 1027 hPa | 0 mm | - | - | - |
| 1777629827 | 18.89° C | 83% | 1026.9 hPa | 0 mm | - | - | - |
| 1777628027 | 18.89° C | 81% | 1027 hPa | 0 mm | - | - | - |
| 1777626227 | 18.89° C | 81% | 1026.9 hPa | 0 mm | - | - | - |
| 1777624427 | 19.44° C | 80% | 1026.6 hPa | 0 mm | - | - | - |
| 1777622627 | 20° C | 78% | 1026.4 hPa | 0 mm | - | - | - |
| 1777620827 | 21.11° C | 77% | 1026.3 hPa | 0 mm | - | - | - |
| 1777619026 | 21.67° C | 78% | 1026.1 hPa | 0 mm | - | - | - |
| 1777617226 | 22.22° C | 75% | 1026.2 hPa | 0 mm | - | - | - |
| 1777615426 | 22.78° C | 75% | 1026.3 hPa | 0 mm | - | - | - |
| 1777613626 | 23.33° C | 75% | 1026.4 hPa | 0 mm | - | - | - |
| 1777611826 | 23.89° C | 72% | 1026.5 hPa | 0 mm | - | - | - |
| 1777610026 | 23.89° C | 75% | 1026.6 hPa | 0 mm | - | - | - |
| 1777608225 | 24.44° C | 76% | 1026.6 hPa | 0 mm | - | - | - |
| 1777606425 | 24.44° C | 71% | 1026.9 hPa | 0 mm | - | - | - |
| 1777604625 | 24.44° C | 73% | 1027.2 hPa | 0 mm | - | - | - |
| 1777602825 | 24.44° C | 70% | 1027.5 hPa | 0 mm | - | - | - |
| 1777601025 | 23.89° C | 73% | 1028 hPa | 0 mm | - | - | - |
| 1777600650 | 23.89° C | 72% | 1028.2 hPa | 0 mm | - | - | - |
| 1777598850 | 23.33° C | 73% | 1028.7 hPa | 0 mm | - | - | - |
| 1777597049 | 23.33° C | 74% | 1029.3 hPa | 0 mm | - | - | - |
* Rain latest hour (hover to see other rain measurements)
** Current wind speed in m/s (hover to see current wind gust speed)